Time;durP1;ratioP1;P1;durP2;ratioP2;P2;SDS_P1;SDS_P2;PMS_P1;PMS_P2;Temp;Humidity;BMP_temperature;BMP_pressure;BME280_temperature;BME280_humidity;BME280_pressure;Samples;Min_cycle;Max_cycle;Signal;HPM_P1;HPM_P2
2023/01/26 00:00:24;;;;;;;15.88;9.68;;;;;;;;;;2087205;28;20094;-90
2023/01/26 00:01:29;;;;;;;;;;;;;;;;;;2087967;28;20507;-91
2023/01/26 00:02:29;;;;;;;17.05;9.30;;;;;;;;;;2087122;28;19909;-90
2023/01/26 00:03:29;;;;;;;;;;;;;;;;;;2088424;28;20044;-90
2023/01/26 00:04:30;;;;;;;12.30;8.25;;;;;;;;;;2087088;28;20370;-90
2023/01/26 00:05:30;;;;;;;14.50;8.98;;;;;;;;;;2087032;28;20387;-90
2023/01/26 00:06:30;;;;;;;;;;;;;;;;;;2087622;28;20522;-91
2023/01/26 00:07:31;;;;;;;14.35;9.25;;;;;;;;;;2087115;28;19916;-89
2023/01/26 00:08:35;;;;;;;;;;;;;;;;;;2080519;28;20438;-88
2023/01/26 00:09:35;;;;;;;13.00;8.35;;;;;;;;;;2087401;28;20011;-90
2023/01/26 00:10:36;;;;;;;;;;;;;;;;;;2088304;28;20029;-91
2023/01/26 00:11:37;;;;;;;15.27;8.43;;;;;;;;;;2088306;28;20313;-91
2023/01/26 00:12:37;;;;;;;;;;;;;;;;;;2088641;28;20033;-90
2023/01/26 00:13:40;;;;;;;13.37;7.60;;;;;;;;;;2089232;28;20327;-92
2023/01/26 00:14:49;;;;;;;17.48;9.70;;;;;;;;;;2088568;28;20029;-91
2023/01/26 00:15:50;;;;;;;14.88;10.38;;;;;;;;;;2087082;28;20399;-91
2023/01/26 00:16:50;;;;;;;;;;;;;;;;;;2088009;28;20071;-90
2023/01/26 00:17:50;;;;;;;15.10;9.10;;;;;;;;;;2087373;28;19916;-90
2023/01/26 00:18:51;;;;;;;15.02;8.75;;;;;;;;;;2090404;28;20033;-89
2023/01/26 00:19:53;;;;;;;;;;;;;;;;;;2098592;28;20016;-89
2023/01/26 00:21:00;;;;;;;13.77;8.55;;;;;;;;;;2098019;28;19944;-90
2023/01/26 00:22:01;;;;;;;14.25;9.02;;;;;;;;;;2088494;28;20089;-89
2023/01/26 00:23:01;;;;;;;;;;;;;;;;;;2092909;28;20029;-91
2023/01/26 00:24:03;;;;;;;12.90;8.50;;;;;;;;;;2090437;28;19952;-90
2023/01/26 00:25:04;;;;;;;13.38;8.93;;;;;;;;;;2088461;28;20087;-91
2023/01/26 00:26:05;;;;;;;;;;;;;;;;;;2087775;28;20363;-91
2023/01/26 00:27:05;;;;;;;13.98;8.07;;;;;;;;;;2091317;28;19974;-91
2023/01/26 00:28:06;;;;;;;13.85;9.10;;;;;;;;;;2102851;28;20025;-91
2023/01/26 00:29:06;;;;;;;15.52;8.75;;;;;;;;;;2088399;28;20041;-91
2023/01/26 00:30:07;;;;;;;14.20;9.35;;;;;;;;;;2087096;28;20040;-91
2023/01/26 00:31:10;;;;;;;;;;;;;;;;;;2078971;28;20090;-90
2023/01/26 00:32:11;;;;;;;13.93;9.40;;;;;;;;;;2079046;28;19909;-91
2023/01/26 00:33:11;;;;;;;;;;;;;;;;;;2079279;28;20428;-90
2023/01/26 00:34:11;;;;;;;14.10;8.03;;;;;;;;;;2078662;28;20015;-91
2023/01/26 00:35:12;;;;;;;14.07;9.77;;;;;;;;;;2079013;28;20109;-90
2023/01/26 00:36:12;;;;;;;;;;;;;;;;;;2087434;28;20025;-91
2023/01/26 00:37:13;;;;;;;14.90;9.30;;;;;;;;;;2087435;28;19960;-91
2023/01/26 00:38:13;;;;;;;;;;;;;;;;;;2087668;28;20156;-91
2023/01/26 00:39:13;;;;;;;13.13;8.02;;;;;;;;;;2092962;28;20016;-91
2023/01/26 00:40:14;;;;;;;;;;;;;;;;;;2095330;28;20025;-91
2023/01/26 00:42:33;;;;;;;20.15;11.02;;;;;;;;;;2095586;28;20029;-90
2023/01/26 00:43:34;;;;;;;;;;;;;;;;;;2093960;28;20091;-91
2023/01/26 00:44:36;;;;;;;14.57;9.63;;;;;;;;;;2089182;28;20003;-90
2023/01/26 00:45:36;;;;;;;16.73;10.20;;;;;;;;;;2079486;28;20033;-90
2023/01/26 00:46:37;;;;;;;;;;;;;;;;;;2080050;28;20033;-89
2023/01/26 00:47:37;;;;;;;15.10;9.87;;;;;;;;;;2079507;28;19915;-89
2023/01/26 00:48:38;;;;;;;;;;;;;;;;;;2087942;28;20029;-89
2023/01/26 00:49:38;;;;;;;18.10;9.07;;;;;;;;;;2087320;28;20538;-89
2023/01/26 00:50:38;;;;;;;;;;;;;;;;;;2088114;28;20043;-89
2023/01/26 00:51:39;;;;;;;16.33;9.50;;;;;;;;;;2087441;28;19912;-90
2023/01/26 00:52:39;;;;;;;;;;;;;;;;;;2088405;28;20033;-91
2023/01/26 00:53:40;;;;;;;16.52;8.43;;;;;;;;;;2079815;28;19909;-90
2023/01/26 00:54:40;;;;;;;;;;;;;;;;;;2090987;28;20033;-90
2023/01/26 00:55:40;;;;;;;14.52;8.88;;;;;;;;;;2091082;28;20317;-90
2023/01/26 00:56:41;;;;;;;;;;;;;;;;;;2080799;28;20029;-90
2023/01/26 00:57:41;;;;;;;15.82;9.18;;;;;;;;;;2087131;28;20448;-90
2023/01/26 00:58:43;;;;;;;;;;;;;;;;;;2087246;28;20133;-90
2023/01/26 00:59:43;;;;;;;;;;;;;;;;;;2088154;28;19955;-90
2023/01/26 01:00:44;;;;;;;14.30;8.00;;;;;;;;;;2087732;28;20192;-90
2023/01/26 01:01:44;;;;;;;;;;;;;;;;;;2087906;28;20028;-90
2023/01/26 01:02:47;;;;;;;13.30;8.27;;;;;;;;;;2087531;28;20308;-90
2023/01/26 01:03:49;;;;;;;13.05;8.82;;;;;;;;;;2087009;28;20286;-90
2023/01/26 01:04:51;;;;;;;13.43;9.02;;;;;;;;;;2087629;28;20029;-90
2023/01/26 01:05:52;;;;;;;16.33;9.43;;;;;;;;;;2086850;28;20036;-90
2023/01/26 01:06:52;;;;;;;;;;;;;;;;;;2087358;28;20073;-90
2023/01/26 01:07:55;;;;;;;16.83;8.60;;;;;;;;;;2087109;28;19966;-91
2023/01/26 01:08:56;;;;;;;15.32;10.48;;;;;;;;;;2089068;28;20041;-91
2023/01/26 01:09:56;;;;;;;;;;;;;;;;;;2087877;28;20152;-90
2023/01/26 01:11:08;;;;;;;14.63;9.37;;;;;;;;;;2087165;28;20329;-90
2023/01/26 01:12:09;;;;;;;14.95;8.48;;;;;;;;;;2087393;28;20144;-90
2023/01/26 01:13:09;;;;;;;;;;;;;;;;;;2087904;28;20021;-91
2023/01/26 01:14:12;;;;;;;12.93;8.25;;;;;;;;;;2087603;28;20278;-92
2023/01/26 01:15:14;;;;;;;15.02;9.35;;;;;;;;;;2087260;28;20031;-91
2023/01/26 01:16:15;;;;;;;15.82;9.75;;;;;;;;;;2087726;28;20384;-91
2023/01/26 01:17:18;;;;;;;14.80;9.25;;;;;;;;;;2087999;28;20033;-93
2023/01/26 01:18:19;;;;;;;13.48;9.18;;;;;;;;;;2091051;28;20029;-91
2023/01/26 01:19:19;;;;;;;;;;;;;;;;;;1739365;28;10113565;-91
2023/01/26 01:20:20;;;;;;;15.13;8.50;;;;;;;;;;2094755;28;19992;-92
2023/01/26 01:21:22;;;;;;;15.45;9.57;;;;;;;;;;2088117;28;20518;-91
2023/01/26 01:22:22;;;;;;;17.70;9.30;;;;;;;;;;2079884;28;20432;-91
2023/01/26 01:23:22;;;;;;;;;;;;;;;;;;2088048;28;20033;-92
2023/01/26 01:24:23;;;;;;;14.13;8.67;;;;;;;;;;2088037;28;19909;-91
2023/01/26 01:25:23;;;;;;;15.35;8.25;;;;;;;;;;2088001;28;20048;-92
2023/01/26 01:26:24;;;;;;;;;;;;;;;;;;2088238;28;20522;-91
2023/01/26 01:27:24;;;;;;;16.00;9.02;;;;;;;;;;2079617;28;19909;-91
2023/01/26 01:28:25;;;;;;;;;;;;;;;;;;2079792;28;20116;-92
2023/01/26 01:29:25;;;;;;;13.70;8.63;;;;;;;;;;2088027;28;19912;-92
2023/01/26 01:30:26;;;;;;;;;;;;;;;;;;2088020;28;20506;-91
2023/01/26 01:31:28;;;;;;;14.27;8.83;;;;;;;;;;2087874;28;20075;-90
2023/01/26 01:32:28;;;;;;;15.77;9.82;;;;;;;;;;2087500;28;20103;-90
2023/01/26 01:33:28;;;;;;;;;;;;;;;;;;2088769;28;20028;-92
2023/01/26 01:34:29;;;;;;;17.45;9.43;;;;;;;;;;2087776;28;19935;-92
2023/01/26 01:35:31;;;;;;;;;;;;;;;;;;2080162;28;20029;-92
2023/01/26 01:36:35;;;;;;;15.18;9.02;;;;;;;;;;2088873;28;19935;-93
2023/01/26 01:37:35;;;;;;;16.83;8.73;;;;;;;;;;2087564;28;20084;-91
2023/01/26 01:38:36;;;;;;;;;;;;;;;;;;2087753;28;20082;-91
2023/01/26 01:39:36;;;;;;;11.52;7.97;;;;;;;;;;2087843;28;19908;-91
2023/01/26 01:40:41;;;;;;;;;;;;;;;;;;2087838;28;20028;-90
2023/01/26 01:41:41;;;;;;;12.15;7.90;;;;;;;;;;2087359;28;19978;-91
2023/01/26 01:42:45;;;;;;;;;;;;;;;;;;2087880;28;20122;-91
2023/01/26 01:43:46;;;;;;;12.55;7.50;;;;;;;;;;2088739;28;19917;-90
2023/01/26 01:45:06;;;;;;;;;;;;;;;;;;2088895;28;20111;-90
2023/01/26 01:46:13;;;;;;;12.90;8.27;;;;;;;;;;2088530;28;19915;-90
2023/01/26 01:47:25;;;;;;;13.52;8.20;;;;;;;;;;2088200;28;20246;-89
2023/01/26 01:48:28;;;;;;;14.40;8.55;;;;;;;;;;2081464;28;20053;-90
2023/01/26 01:49:37;;;;;;;12.55;8.40;;;;;;;;;;2080310;28;20029;-90
2023/01/26 01:50:41;;;;;;;14.05;8.63;;;;;;;;;;2088452;28;20032;-91
2023/01/26 01:51:45;;;;;;;14.95;9.00;;;;;;;;;;2088705;28;20063;-91
2023/01/26 01:52:46;;;;;;;11.40;7.93;;;;;;;;;;2089029;28;20037;-90
2023/01/26 01:53:50;;;;;;;13.52;8.13;;;;;;;;;;2088383;28;20053;-89
2023/01/26 01:55:00;;;;;;;15.75;9.02;;;;;;;;;;2080797;28;20029;-90
2023/01/26 01:56:06;;;;;;;16.00;9.25;;;;;;;;;;1733801;28;10002172;-90
2023/01/26 01:57:16;;;;;;;15.32;10.02;;;;;;;;;;2089053;28;20031;-89
2023/01/26 01:58:17;;;;;;;13.90;9.03;;;;;;;;;;2092721;28;20085;-90
2023/01/26 01:59:20;;;;;;;;;;;;;;;;;;2080315;28;20362;-91
2023/01/26 02:00:22;;;;;;;18.17;8.77;;;;;;;;;;2080432;28;19913;-90
2023/01/26 02:01:24;;;;;;;15.25;8.88;;;;;;;;;;2088216;28;20437;-91
2023/01/26 02:02:24;;;;;;;14.32;8.02;;;;;;;;;;2088986;28;20051;-91
2023/01/26 02:03:25;;;;;;;;;;;;;;;;;;2088578;28;20021;-89
2023/01/26 02:04:26;;;;;;;13.80;7.75;;;;;;;;;;2087950;28;19957;-90
2023/01/26 02:05:32;;;;;;;12.15;8.30;;;;;;;;;;2089391;28;20037;-91
2023/01/26 02:06:49;;;;;;;13.65;8.63;;;;;;;;;;2089182;28;20120;-91
2023/01/26 02:07:49;;;;;;;16.45;9.38;;;;;;;;;;2088232;28;20032;-91
2023/01/26 02:08:51;;;;;;;;;;;;;;;;;;2088658;28;20056;-89
2023/01/26 02:11:22;;;;;;;12.48;8.52;;;;;;;;;;2094950;28;19912;-91
2023/01/26 02:12:26;;;;;;;14.85;8.50;;;;;;;;;;2097667;28;20040;-91
2023/01/26 02:13:28;;;;;;;12.70;8.43;;;;;;;;;;2088532;28;20197;-91
2023/01/26 02:14:31;;;;;;;11.10;7.85;;;;;;;;;;2080104;28;20271;-90
2023/01/26 02:15:31;;;;;;;13.48;8.45;;;;;;;;;;2088276;28;20309;-91
2023/01/26 02:16:31;;;;;;;;;;;;;;;;;;2088667;28;20541;-90
2023/01/26 02:17:32;;;;;;;12.23;7.77;;;;;;;;;;2088096;28;19948;-89
2023/01/26 02:18:34;;;;;;;17.38;9.30;;;;;;;;;;1732782;28;10001489;-90
2023/01/26 02:19:48;;;;;;;14.23;8.80;;;;;;;;;;2079906;28;20435;-91
2023/01/26 02:20:58;;;;;;;15.35;8.57;;;;;;;;;;2081459;28;20048;-91
2023/01/26 02:22:06;;;;;;;14.40;8.75;;;;;;;;;;2088225;28;20112;-91
2023/01/26 02:23:19;;;;;;;12.73;8.20;;;;;;;;;;2088739;28;20035;-89
2023/01/26 02:24:25;;;;;;;13.77;8.15;;;;;;;;;;2087838;28;20525;-89
2023/01/26 02:25:56;;;;;;;12.95;7.80;;;;;;;;;;2088030;28;20029;-90
2023/01/26 02:26:56;;;;;;;14.35;8.95;;;;;;;;;;2087788;28;20510;-88
2023/01/26 02:27:56;;;;;;;;;;;;;;;;;;2088515;28;20071;-90
2023/01/26 02:28:58;;;;;;;12.27;7.00;;;;;;;;;;2088016;28;19916;-88
2023/01/26 02:29:59;;;;;;;14.95;7.70;;;;;;;;;;2087840;28;20158;-91
2023/01/26 02:31:00;;;;;;;13.20;8.82;;;;;;;;;;2087827;28;20115;-90
2023/01/26 02:32:00;;;;;;;;;;;;;;;;;;2089530;28;20343;-90
2023/01/26 02:33:01;;;;;;;13.40;8.10;;;;;;;;;;2091251;28;19948;-89
2023/01/26 02:34:01;;;;;;;;;;;;;;;;;;2082975;28;20043;-91
2023/01/26 02:35:02;;;;;;;12.90;7.47;;;;;;;;;;2087824;28;19950;-90
2023/01/26 02:36:03;;;;;;;14.88;9.07;;;;;;;;;;2087538;28;20024;-89
2023/01/26 02:37:03;;;;;;;13.20;8.05;;;;;;;;;;2088047;28;20111;-88
2023/01/26 02:38:04;;;;;;;;;;;;;;;;;;2087956;28;20021;-89
2023/01/26 02:39:33;;;;;;;13.95;8.27;;;;;;;;;;2079567;28;20386;-90
2023/01/26 02:40:54;;;;;;;12.15;7.10;;;;;;;;;;2087683;28;20126;-90
2023/01/26 02:43:14;;;;;;;11.70;7.53;;;;;;;;;;2088312;28;20060;-90
2023/01/26 02:44:15;;;;;;;;;;;;;;;;;;2092980;28;20025;-89
2023/01/26 02:45:16;;;;;;;11.43;7.33;;;;;;;;;;2092723;28;19962;-90
2023/01/26 02:46:16;;;;;;;;;;;;;;;;;;2088816;28;20023;-89
2023/01/26 02:47:18;;;;;;;13.40;6.90;;;;;;;;;;2087731;28;19916;-89
2023/01/26 02:49:51;;;;;;;12.95;7.90;;;;;;;;;;2066839;28;20068;-89
2023/01/26 02:50:52;;;;;;;;;;;;;;;;;;2083241;28;20036;-88
2023/01/26 02:51:52;;;;;;;10.35;6.85;;;;;;;;;;2087355;28;20160;-89
2023/01/26 02:52:52;;;;;;;;;;;;;;;;;;2088015;28;20487;-89
2023/01/26 02:53:53;;;;;;;11.40;7.30;;;;;;;;;;2087224;28;19936;-89
2023/01/26 02:56:13;;;;;;;15.48;8.40;;;;;;;;;;2087865;28;20033;-89
2023/01/26 02:57:14;;;;;;;;;;;;;;;;;;2090170;28;20458;-89
2023/01/26 02:58:14;;;;;;;14.53;9.13;;;;;;;;;;2089654;28;19931;-89
2023/01/26 02:59:22;;;;;;;;;;;;;;;;;;2099910;28;20076;-88
2023/01/26 03:00:41;;;;;;;13.63;8.10;;;;;;;;;;2099163;28;19917;-89
2023/01/26 03:01:41;;;;;;;18.23;9.75;;;;;;;;;;2096403;28;20035;-89
2023/01/26 03:02:41;;;;;;;;;;;;;;;;;;2092244;28;20013;-88
2023/01/26 03:03:43;;;;;;;14.05;7.85;;;;;;;;;;2092133;28;19917;-90
2023/01/26 03:04:45;;;;;;;14.50;8.70;;;;;;;;;;2093872;28;20025;-88
2023/01/26 03:05:48;;;;;;;18.32;9.06;;;;;;;;;;1393880;28;10002316;-89
2023/01/26 03:06:49;;;;;;;17.00;10.15;;;;;;;;;;2096070;28;20234;-88
2023/01/26 03:07:49;;;;;;;;;;;;;;;;;;2088062;28;20029;-88
2023/01/26 03:08:49;;;;;;;12.20;7.70;;;;;;;;;;2079425;28;19995;-91
2023/01/26 03:09:50;;;;;;;;;;;;;;;;;;2079875;28;20440;-90
2023/01/26 03:10:50;;;;;;;15.63;8.65;;;;;;;;;;2087578;28;19944;-90
2023/01/26 03:11:50;;;;;;;;;;;;;;;;;;2096747;28;20463;-90
2023/01/26 03:12:53;;;;;;;11.38;7.53;;;;;;;;;;2087360;28;19909;-90
2023/01/26 03:13:53;;;;;;;15.02;8.93;;;;;;;;;;2087856;28;20470;-90
2023/01/26 03:16:17;;;;;;;13.57;8.13;;;;;;;;;;2088423;28;20298;-89
2023/01/26 03:17:17;;;;;;;17.17;9.50;;;;;;;;;;2087550;28;20049;-89
2023/01/26 03:27:48;;;;;;;10.98;7.95;;;;;;;;;;2088468;28;20083;-89
2023/01/26 03:28:48;;;;;;;;;;;;;;;;;;2088406;28;20032;-90
2023/01/26 03:29:49;;;;;;;14.30;8.80;;;;;;;;;;2087778;28;19919;-90
2023/01/26 03:30:50;;;;;;;;;;;;;;;;;;2079921;28;20026;-91
2023/01/26 03:31:50;;;;;;;11.33;6.87;;;;;;;;;;2079501;28;19971;-91
2023/01/26 03:32:50;;;;;;;;;;;;;;;;;;2088031;28;20365;-90
2023/01/26 03:33:51;;;;;;;10.60;6.75;;;;;;;;;;2087668;28;20002;-90
2023/01/26 03:34:51;;;;;;;;;;;;;;;;;;2088371;28;20031;-90
2023/01/26 03:35:53;;;;;;;12.27;6.97;;;;;;;;;;2087863;28;20334;-91
2023/01/26 03:36:54;;;;;;;10.77;7.43;;;;;;;;;;2079714;28;20048;-90
2023/01/26 03:37:54;;;;;;;;;;;;;;;;;;2088017;28;20059;-90
2023/01/26 03:38:54;;;;;;;11.43;7.80;;;;;;;;;;2088056;28;19909;-89
2023/01/26 03:57:19;;;;;;;10.75;8.05;;;;;;;;;;2096222;28;20037;-91
2023/01/26 03:58:20;;;;;;;13.25;8.23;;;;;;;;;;2089492;28;20517;-91
2023/01/26 03:59:36;;;;;;;;;;;;;;;;;;2088739;28;20060;-91
2023/01/26 04:00:36;;;;;;;13.80;7.47;;;;;;;;;;2087482;28;19912;-90
2023/01/26 04:01:40;;;;;;;;;;;;;;;;;;2079565;28;20480;-90
2023/01/26 04:08:23;;;;;;;12.63;8.00;;;;;;;;;;2087913;28;20029;-90
2023/01/26 04:09:24;;;;;;;10.77;7.75;;;;;;;;;;2087281;28;20033;-90
2023/01/26 04:10:25;;;;;;;;;;;;;;;;;;2079299;28;20053;-90
2023/01/26 04:11:25;;;;;;;12.52;8.07;;;;;;;;;;2087601;28;20433;-90
2023/01/26 04:12:25;;;;;;;14.10;7.65;;;;;;;;;;2095838;28;20028;-89
2023/01/26 04:22:46;;;;;;;12.38;8.77;;;;;;;;;;2083825;28;20106;-91
2023/01/26 04:23:47;;;;;;;;;;;;;;;;;;2088402;28;20037;-90
2023/01/26 04:24:47;;;;;;;12.23;8.13;;;;;;;;;;2087309;28;19963;-90
2023/01/26 04:25:47;;;;;;;;;;;;;;;;;;2087587;28;20029;-90
2023/01/26 04:26:48;;;;;;;11.93;8.18;;;;;;;;;;2088527;28;19909;-90
2023/01/26 04:27:48;;;;;;;;;;;;;;;;;;2087799;28;20390;-90
2023/01/26 04:28:49;;;;;;;12.80;7.80;;;;;;;;;;2087503;28;19979;-91
2023/01/26 04:29:50;;;;;;;;;;;;;;;;;;2099087;28;20048;-90
2023/01/26 04:30:53;;;;;;;11.57;6.80;;;;;;;;;;2100499;28;19912;-90
2023/01/26 04:31:56;;;;;;;12.98;8.45;;;;;;;;;;2099360;28;20020;-90
2023/01/26 04:32:58;;;;;;;15.23;8.30;;;;;;;;;;2092601;28;20024;-90
2023/01/26 04:34:03;;;;;;;13.65;8.55;;;;;;;;;;2089940;28;20171;-90
2023/01/26 04:35:05;;;;;;;12.02;8.57;;;;;;;;;;2090405;28;20051;-91
2023/01/26 04:36:07;;;;;;;12.95;8.85;;;;;;;;;;2079125;28;20028;-90
2023/01/26 04:37:09;;;;;;;12.50;8.65;;;;;;;;;;2087730;28;20029;-90
2023/01/26 04:38:09;;;;;;;11.15;7.68;;;;;;;;;;2088778;28;20096;-90
2023/01/26 04:39:09;;;;;;;;;;;;;;;;;;2087488;28;20585;-90
2023/01/26 04:40:10;;;;;;;12.03;7.73;;;;;;;;;;2087316;28;19955;-90
2023/01/26 04:41:11;;;;;;;;;;;;;;;;;;2096438;28;20040;-90
2023/01/26 04:42:11;;;;;;;12.10;8.87;;;;;;;;;;2087734;28;19909;-90
2023/01/26 04:43:12;;;;;;;;;;;;;;;;;;2087295;28;20178;-90
2023/01/26 04:44:12;;;;;;;11.00;7.57;;;;;;;;;;2087424;28;20379;-90
2023/01/26 04:45:12;;;;;;;;;;;;;;;;;;2087576;28;20111;-90
2023/01/26 04:46:13;;;;;;;11.30;7.23;;;;;;;;;;2087137;28;19912;-90
2023/01/26 04:47:13;;;;;;;;;;;;;;;;;;2087811;28;20128;-90
2023/01/26 04:48:17;;;;;;;11.17;7.63;;;;;;;;;;2088666;28;20408;-90
2023/01/26 04:49:17;;;;;;;12.20;8.93;;;;;;;;;;2088561;28;20057;-90
2023/01/26 04:50:18;;;;;;;;;;;;;;;;;;2087579;28;20518;-90
2023/01/26 04:51:20;;;;;;;12.87;8.00;;;;;;;;;;2087268;28;19908;-90
2023/01/26 04:52:20;;;;;;;17.67;8.90;;;;;;;;;;2087171;28;20107;-91
2023/01/26 04:53:21;;;;;;;;;;;;;;;;;;2088558;28;20024;-91
2023/01/26 04:54:21;;;;;;;12.43;8.27;;;;;;;;;;2086920;28;19936;-90
2023/01/26 04:55:22;;;;;;;;;;;;;;;;;;2079382;28;20171;-91
2023/01/26 04:56:26;;;;;;;12.17;7.40;;;;;;;;;;2087475;28;19916;-91
2023/01/26 04:57:29;;;;;;;14.13;8.55;;;;;;;;;;2079591;28;20087;-91
2023/01/26 04:58:31;;;;;;;13.48;8.57;;;;;;;;;;2087314;28;20404;-90
2023/01/26 04:59:31;;;;;;;14.10;9.27;;;;;;;;;;2087317;28;20168;-90
2023/01/26 05:00:32;;;;;;;;;;;;;;;;;;2079546;28;20029;-91
2023/01/26 05:01:33;;;;;;;12.90;9.47;;;;;;;;;;2087213;28;20378;-91
2023/01/26 05:02:33;;;;;;;;;;;;;;;;;;2087699;28;20037;-91
2023/01/26 05:03:33;;;;;;;14.83;8.53;;;;;;;;;;2087890;28;19995;-91
2023/01/26 05:04:34;;;;;;;;;;;;;;;;;;2087817;28;20371;-91
2023/01/26 05:05:37;;;;;;;14.93;9.48;;;;;;;;;;2087360;28;19915;-90
2023/01/26 05:06:38;;;;;;;14.95;10.88;;;;;;;;;;2087121;28;20093;-90
2023/01/26 05:07:38;;;;;;;;;;;;;;;;;;2079577;28;20036;-90
2023/01/26 05:08:39;;;;;;;16.40;9.40;;;;;;;;;;2087140;28;19917;-91
2023/01/26 05:09:39;;;;;;;;;;;;;;;;;;2087841;28;20102;-91
2023/01/26 05:10:40;;;;;;;21.85;11.38;;;;;;;;;;2078940;28;19913;-90
2023/01/26 05:11:40;;;;;;;;;;;;;;;;;;2079290;28;20120;-91
2023/01/26 05:12:41;;;;;;;17.07;10.83;;;;;;;;;;2087215;28;20003;-91
2023/01/26 05:13:42;;;;;;;17.65;11.88;;;;;;;;;;2079229;28;20040;-89
2023/01/26 05:14:44;;;;;;;;;;;;;;;;;;2087324;28;20056;-89
2023/01/26 05:15:45;;;;;;;17.30;10.07;;;;;;;;;;2087821;28;19966;-90
2023/01/26 05:16:46;;;;;;;15.07;10.52;;;;;;;;;;2086974;28;20036;-90
2023/01/26 05:17:48;;;;;;;;;;;;;;;;;;2081101;28;20033;-90
2023/01/26 05:18:49;;;;;;;19.75;11.25;;;;;;;;;;2089464;28;19932;-90
2023/01/26 05:19:49;;;;;;;;;;;;;;;;;;2089506;28;20502;-91
2023/01/26 05:20:52;;;;;;;17.08;9.40;;;;;;;;;;2089018;28;20362;-91
2023/01/26 05:21:53;;;;;;;16.13;10.65;;;;;;;;;;2089013;28;20467;-89
2023/01/26 05:22:53;;;;;;;;;;;;;;;;;;2089503;28;20029;-92
2023/01/26 05:23:54;;;;;;;18.70;10.00;;;;;;;;;;2088846;28;19930;-92
2023/01/26 05:24:54;;;;;;;;;;;;;;;;;;2089233;28;20016;-90
2023/01/26 05:25:55;;;;;;;16.63;10.87;;;;;;;;;;2088782;28;19982;-90
2023/01/26 05:27:19;;;;;;;20.02;11.32;;;;;;;;;;2088701;28;20029;-90
2023/01/26 05:28:16;;;;;;;15.63;9.55;;;;;;;;;;2089208;28;20025;-90
2023/01/26 05:29:16;;;;;;;;;;;;;;;;;;2088804;28;20029;-90
2023/01/26 05:30:19;;;;;;;19.67;11.33;;;;;;;;;;2089311;28;19931;-90
2023/01/26 05:31:20;;;;;;;18.35;11.75;;;;;;;;;;2089440;28;20474;-91
2023/01/26 05:32:30;;;;;;;;;;;;;;;;;;2089630;28;20041;-90
2023/01/26 05:33:32;;;;;;;17.20;11.10;;;;;;;;;;2089712;28;19912;-91
2023/01/26 05:34:37;;;;;;;15.57;11.00;;;;;;;;;;2089236;28;20037;-93
2023/01/26 05:35:37;;;;;;;17.48;12.23;;;;;;;;;;2090523;28;20041;-91
2023/01/26 05:36:38;;;;;;;;;;;;;;;;;;2089495;28;20037;-91
2023/01/26 05:38:00;;;;;;;15.60;10.37;;;;;;;;;;2089304;28;19908;-92
2023/01/26 05:39:03;;;;;;;15.60;9.82;;;;;;;;;;2099289;28;20032;-91
2023/01/26 05:40:06;;;;;;;17.15;10.77;;;;;;;;;;2100117;28;20024;-91
2023/01/26 05:41:07;;;;;;;18.30;11.15;;;;;;;;;;2099862;28;20067;-89
2023/01/26 05:42:08;;;;;;;;;;;;;;;;;;2096536;28;20080;-90
2023/01/26 05:43:09;;;;;;;15.30;8.95;;;;;;;;;;2094612;28;19939;-91
2023/01/26 05:44:10;;;;;;;17.20;10.50;;;;;;;;;;2082067;28;20471;-90
2023/01/26 05:45:10;;;;;;;;;;;;;;;;;;2081084;28;20060;-90
2023/01/26 05:46:15;;;;;;;15.70;10.20;;;;;;;;;;2080659;28;19952;-92
2023/01/26 05:47:16;;;;;;;14.15;9.85;;;;;;;;;;2081199;28;20069;-91
2023/01/26 05:48:17;;;;;;;;;;;;;;;;;;2089375;28;20505;-90
2023/01/26 05:49:19;;;;;;;18.23;9.43;;;;;;;;;;2080427;28;19921;-91
2023/01/26 05:50:20;;;;;;;17.02;11.07;;;;;;;;;;2080618;28;20491;-91
2023/01/26 05:51:22;;;;;;;;;;;;;;;;;;2081264;28;20037;-91
2023/01/26 05:52:23;;;;;;;17.13;9.85;;;;;;;;;;2081033;28;19908;-90
2023/01/26 05:53:23;;;;;;;;;;;;;;;;;;2089180;28;20078;-91
2023/01/26 05:54:24;;;;;;;15.97;9.80;;;;;;;;;;2080791;28;19967;-90
2023/01/26 05:55:25;;;;;;;19.70;11.68;;;;;;;;;;2088621;28;20025;-91
2023/01/26 05:56:28;;;;;;;17.90;10.60;;;;;;;;;;2089709;28;20479;-91
2023/01/26 05:57:29;;;;;;;19.15;11.65;;;;;;;;;;2089609;28;20092;-92
2023/01/26 05:58:29;;;;;;;;;;;;;;;;;;2095028;28;20021;-89
2023/01/26 05:59:30;;;;;;;21.20;12.87;;;;;;;;;;2099791;28;19952;-89
2023/01/26 06:00:30;;;;;;;19.30;11.25;;;;;;;;;;2099241;28;20044;-90
2023/01/26 06:01:30;;;;;;;;;;;;;;;;;;2094687;28;20039;-89
2023/01/26 06:02:31;;;;;;;16.90;10.60;;;;;;;;;;2089208;28;19916;-89
2023/01/26 06:03:31;;;;;;;;;;;;;;;;;;2098169;28;20032;-90
2023/01/26 06:04:31;;;;;;;16.55;10.00;;;;;;;;;;2088031;28;19956;-87
2023/01/26 06:05:32;;;;;;;;;;;;;;;;;;2080262;28;20029;-88
2023/01/26 06:06:32;;;;;;;17.77;10.57;;;;;;;;;;2087502;28;20287;-88
2023/01/26 06:07:32;;;;;;;22.77;12.27;;;;;;;;;;2087682;28;20021;-88
2023/01/26 06:08:38;;;;;;;22.17;13.10;;;;;;;;;;2087988;28;20024;-90
2023/01/26 06:09:39;;;;;;;23.17;12.85;;;;;;;;;;2088072;28;20025;-87
2023/01/26 06:10:51;;;;;;;18.17;12.30;;;;;;;;;;2080182;28;20033;-90
2023/01/26 06:11:52;;;;;;;20.10;12.40;;;;;;;;;;2090341;28;20574;-89
2023/01/26 06:12:52;;;;;;;;;;;;;;;;;;2090174;28;20025;-89
2023/01/26 06:13:52;;;;;;;20.03;11.20;;;;;;;;;;2087827;28;19908;-88
2023/01/26 06:14:53;;;;;;;;;;;;;;;;;;2079855;28;20025;-88
2023/01/26 06:16:02;;;;;;;18.88;11.10;;;;;;;;;;2088001;28;19955;-89
2023/01/26 06:17:03;;;;;;;21.77;12.15;;;;;;;;;;2083648;28;20029;-89
2023/01/26 06:18:03;;;;;;;;;;;;;;;;;;2080477;28;20356;-89
2023/01/26 06:19:04;;;;;;;19.48;11.50;;;;;;;;;;2090788;28;19952;-89
2023/01/26 06:20:05;;;;;;;;;;;;;;;;;;2096753;28;20025;-89
2023/01/26 06:21:05;;;;;;;19.17;11.23;;;;;;;;;;2093982;28;19909;-89
2023/01/26 06:22:12;;;;;;;20.85;12.07;;;;;;;;;;2088273;28;20028;-90
2023/01/26 06:23:13;;;;;;;20.60;12.18;;;;;;;;;;2088160;28;20120;-90
2023/01/26 06:24:13;;;;;;;;;;;;;;;;;;2089067;28;20462;-89
2023/01/26 06:25:14;;;;;;;22.23;12.13;;;;;;;;;;2087666;28;20025;-91
2023/01/26 06:26:15;;;;;;;18.55;11.57;;;;;;;;;;2079696;28;20029;-91
2023/01/26 06:27:17;;;;;;;;;;;;;;;;;;2079818;28;20479;-88
2023/01/26 06:28:20;;;;;;;18.13;10.43;;;;;;;;;;2079245;28;19924;-90
2023/01/26 06:29:21;;;;;;;18.27;11.43;;;;;;;;;;2086936;28;20033;-90
2023/01/26 06:30:21;;;;;;;;;;;;;;;;;;2087738;28;20124;-90
2023/01/26 06:31:28;;;;;;;18.57;10.87;;;;;;;;;;2088144;28;19909;-90
2023/01/26 06:32:29;;;;;;;22.27;13.45;;;;;;;;;;2091840;28;20025;-89
2023/01/26 06:33:34;;;;;;;18.23;11.65;;;;;;;;;;2094331;28;20025;-90
2023/01/26 06:34:35;;;;;;;19.00;11.73;;;;;;;;;;2092019;28;20075;-91
2023/01/26 06:35:35;;;;;;;;;;;;;;;;;;2088568;28;20592;-89
2023/01/26 06:36:36;;;;;;;19.87;12.57;;;;;;;;;;2088438;28;20205;-90
2023/01/26 06:37:36;;;;;;;;;;;;;;;;;;2088517;28;20108;-90
2023/01/26 06:38:38;;;;;;;20.77;11.87;;;;;;;;;;2087896;28;19995;-92
2023/01/26 06:39:39;;;;;;;24.90;13.95;;;;;;;;;;2087428;28;20477;-89
2023/01/26 06:40:39;;;;;;;;;;;;;;;;;;2087974;28;20029;-90
2023/01/26 06:41:41;;;;;;;21.50;12.40;;;;;;;;;;2087602;28;20018;-89
2023/01/26 06:42:49;;;;;;;24.17;14.75;;;;;;;;;;2079728;28;20514;-89
2023/01/26 06:43:49;;;;;;;20.17;12.55;;;;;;;;;;2087703;28;20061;-92
2023/01/26 06:44:49;;;;;;;;;;;;;;;;;;2089286;28;20025;-90
2023/01/26 06:45:50;;;;;;;18.95;11.30;;;;;;;;;;2088400;28;19995;-90
2023/01/26 06:46:50;;;;;;;;;;;;;;;;;;2080213;28;20033;-91
2023/01/26 06:47:51;;;;;;;19.40;12.10;;;;;;;;;;2088136;28;20235;-90
2023/01/26 06:48:51;;;;;;;;;;;;;;;;;;2088515;28;20103;-89
2023/01/26 06:49:54;;;;;;;17.47;12.17;;;;;;;;;;2088695;28;20050;-90
2023/01/26 06:51:23;;;;;;;24.90;13.65;;;;;;;;;;2088533;28;20049;-90
2023/01/26 06:52:30;;;;;;;23.13;14.05;;;;;;;;;;2083031;28;20056;-92
2023/01/26 06:53:31;;;;;;;27.77;16.10;;;;;;;;;;2081012;28;20511;-91
2023/01/26 06:54:31;;;;;;;;;;;;;;;;;;2088514;28;20114;-90
2023/01/26 06:55:37;;;;;;;26.08;15.75;;;;;;;;;;2088146;28;19912;-90
2023/01/26 06:56:38;;;;;;;30.48;17.85;;;;;;;;;;2087814;28;20602;-91
2023/01/26 06:57:41;;;;;;;;;;;;;;;;;;2089091;28;20045;-91
2023/01/26 06:58:41;;;;;;;28.60;16.80;;;;;;;;;;2088220;28;19923;-91
2023/01/26 06:59:41;;;;;;;;;;;;;;;;;;2080677;28;20025;-92
2023/01/26 07:00:42;;;;;;;28.97;16.63;;;;;;;;;;2088548;28;19948;-91
2023/01/26 07:01:46;;;;;;;31.13;17.70;;;;;;;;;;2080179;28;20040;-90
2023/01/26 07:02:46;;;;;;;35.72;18.75;;;;;;;;;;2088388;28;20021;-90
2023/01/26 07:03:47;;;;;;;;;;;;;;;;;;2089478;28;20028;-90
2023/01/26 07:04:48;;;;;;;32.10;17.27;;;;;;;;;;2087882;28;20291;-89
2023/01/26 07:05:49;;;;;;;33.58;19.02;;;;;;;;;;2088431;28;20037;-91
2023/01/26 07:06:49;;;;;;;;;;;;;;;;;;2089301;28;20029;-90
2023/01/26 07:07:50;;;;;;;24.27;14.33;;;;;;;;;;2087985;28;20436;-90
2023/01/26 07:08:52;;;;;;;;;;;;;;;;;;2088616;28;20103;-90
2023/01/26 07:09:53;;;;;;;24.13;13.18;;;;;;;;;;2088809;28;19909;-89
2023/01/26 07:10:53;;;;;;;;;;;;;;;;;;2088580;28;20124;-90
2023/01/26 07:11:54;;;;;;;20.40;12.07;;;;;;;;;;2088205;28;19916;-91